Time;durP1;ratioP1;P1;durP2;ratioP2;P2;SDS_P1;SDS_P2;PMS_P1;PMS_P2;Temp;Humidity;BMP_temperature;BMP_pressure;BME280_temperature;BME280_humidity;BME280_pressure;Samples;Min_cycle;Max_cycle;Signal;HPM_P1;HPM_P2
2023/10/10 00:00:55;;;;;;;4.22;2.20;;;;;;;;;;5110942;28;20679;-81
2023/10/10 00:03:23;;;;;;;4.40;2.08;;;;;;;;;;5111202;28;20123;-81
2023/10/10 00:05:57;;;;;;;4.78;2.40;;;;;;;;;;5110577;28;20046;-81
2023/10/10 00:08:35;;;;;;;5.90;2.17;;;;;;;;;;5110384;28;20039;-81
2023/10/10 00:11:09;;;;;;;3.47;1.90;;;;;;;;;;5110366;28;20517;-81
2023/10/10 00:13:42;;;;;;;5.10;2.25;;;;;;;;;;5110489;28;20039;-77
2023/10/10 00:16:23;;;;;;;6.40;2.33;;;;;;;;;;5110424;28;20051;-80
2023/10/10 00:18:50;;;;;;;5.47;2.17;;;;;;;;;;5111029;28;20054;-79
2023/10/10 00:21:23;;;;;;;5.05;2.33;;;;;;;;;;5110725;28;20040;-81
2023/10/10 00:23:53;;;;;;;5.18;2.10;;;;;;;;;;5108910;28;20514;-80
2023/10/10 00:26:21;;;;;;;10.27;2.60;;;;;;;;;;5110301;28;20058;-72
2023/10/10 00:28:55;;;;;;;6.45;1.98;;;;;;;;;;5110491;28;20043;-75
2023/10/10 00:31:23;;;;;;;6.22;2.10;;;;;;;;;;5110631;28;20082;-76
2023/10/10 00:33:51;;;;;;;5.35;2.33;;;;;;;;;;5110324;28;20047;-81
2023/10/10 00:36:37;;;;;;;4.70;2.03;;;;;;;;;;5110628;28;20080;-81
2023/10/10 00:41:52;;;;;;;4.05;2.30;;;;;;;;;;5110272;28;20070;-81
2023/10/10 00:44:19;;;;;;;7.82;2.50;;;;;;;;;;5109883;28;20048;-80
2023/10/10 00:46:55;;;;;;;5.80;2.33;;;;;;;;;;5109919;28;20100;-80
2023/10/10 00:49:25;;;;;;;3.95;2.13;;;;;;;;;;5110462;28;20046;-81
2023/10/10 00:51:54;;;;;;;4.45;2.22;;;;;;;;;;5110279;28;20116;-80
2023/10/10 00:54:26;;;;;;;4.80;2.28;;;;;;;;;;5109438;28;20597;-80
2023/10/10 00:56:56;;;;;;;6.15;2.15;;;;;;;;;;5109672;28;20630;-79
2023/10/10 01:02:23;;;;;;;6.25;2.10;;;;;;;;;;5064442;28;20048;-78
2023/10/10 01:07:21;;;;;;;7.20;2.15;;;;;;;;;;5109812;28;20046;-80
2023/10/10 01:10:36;;;;;;;4.72;2.03;;;;;;;;;;5109483;28;20051;-81
2023/10/10 01:12:40;;;;;;;7.25;2.28;;;;;;;;;;5098757;28;20047;-81
2023/10/10 01:15:34;;;;;;;4.43;2.00;;;;;;;;;;5109589;28;20059;-81
2023/10/10 01:18:01;;;;;;;4.63;2.08;;;;;;;;;;5109732;28;20043;-81
2023/10/10 01:20:34;;;;;;;4.05;2.00;;;;;;;;;;5109466;28;20100;-78
2023/10/10 01:23:02;;;;;;;4.68;1.80;;;;;;;;;;5109161;28;20048;-82
2023/10/10 01:31:07;;;;;;;5.82;1.80;;;;;;;;;;5091646;28;20485;-79
2023/10/10 01:33:47;;;;;;;4.35;1.90;;;;;;;;;;5109466;28;20133;-80
2023/10/10 01:36:20;;;;;;;5.63;2.20;;;;;;;;;;5091466;28;20051;-80
2023/10/10 01:38:59;;;;;;;4.90;2.03;;;;;;;;;;5108761;28;20534;-77
2023/10/10 01:41:38;;;;;;;3.33;1.90;;;;;;;;;;5109203;28;20051;-79
2023/10/10 01:44:18;;;;;;;3.92;1.80;;;;;;;;;;5109004;28;20039;-81
2023/10/10 01:46:45;;;;;;;4.15;1.85;;;;;;;;;;5109100;28;20191;-79
2023/10/10 01:49:22;;;;;;;5.47;1.98;;;;;;;;;;5109387;28;20089;-78
2023/10/10 01:51:58;;;;;;;5.82;1.90;;;;;;;;;;5108705;28;20047;-79
2023/10/10 01:54:45;;;;;;;7.28;2.20;;;;;;;;;;5108395;28;20514;-81
2023/10/10 01:57:21;;;;;;;3.40;1.98;;;;;;;;;;5090805;28;20071;-81
2023/10/10 01:59:51;;;;;;;3.40;1.67;;;;;;;;;;5109011;28;20051;-81
2023/10/10 02:02:24;;;;;;;4.70;2.37;;;;;;;;;;5108813;28;20550;-80
2023/10/10 02:04:53;;;;;;;4.22;2.00;;;;;;;;;;5109289;28;20047;-79
2023/10/10 02:07:23;;;;;;;4.97;2.08;;;;;;;;;;5109237;28;20047;-80
2023/10/10 02:10:00;;;;;;;3.83;1.90;;;;;;;;;;5108683;28;20694;-80
2023/10/10 02:12:27;;;;;;;5.28;2.13;;;;;;;;;;5108398;28;20690;-80
2023/10/10 02:14:54;;;;;;;5.97;2.20;;;;;;;;;;5110905;28;20044;-80
2023/10/10 02:17:26;;;;;;;4.20;2.15;;;;;;;;;;5113099;28;20126;-76
2023/10/10 02:19:58;;;;;;;3.67;2.15;;;;;;;;;;5112970;28;20484;-74
2023/10/10 02:22:47;;;;;;;5.07;2.08;;;;;;;;;;5112745;28;20043;-79
2023/10/10 02:27:55;;;;;;;4.20;2.00;;;;;;;;;;5112539;28;20043;-81
2023/10/10 02:30:35;;;;;;;3.90;1.98;;;;;;;;;;5112720;28;20044;-79
2023/10/10 02:33:17;;;;;;;5.05;2.05;;;;;;;;;;5112738;28;20047;-82
2023/10/10 02:38:31;;;;;;;3.80;1.75;;;;;;;;;;5112102;28;20079;-82
2023/10/10 02:44:05;;;;;;;;;;;;;;;;;;5113152;28;20039;-80
2023/10/10 02:46:39;;;;;;;4.10;1.58;;;;;;;;;;5112136;28;19930;-82
2023/10/10 02:49:29;;;;;;;3.85;2.00;;;;;;;;;;5112601;28;20100;-81
2023/10/10 02:51:57;;;;;;;5.70;2.07;;;;;;;;;;5112121;28;20471;-82
2023/10/10 02:54:35;;;;;;;6.30;1.83;;;;;;;;;;5111768;28;20052;-79
2023/10/10 02:59:59;;;;;;;5.40;1.85;;;;;;;;;;5112451;28;20175;-81
2023/10/10 03:02:31;;;;;;;4.05;1.55;;;;;;;;;;5111758;28;20051;-81
2023/10/10 03:07:29;;;;;;;3.08;2.00;;;;;;;;;;5111795;28;20047;-80
2023/10/10 03:10:22;;;;;;;2.60;1.63;;;;;;;;;;5112085;28;20048;-82
2023/10/10 03:12:51;;;;;;;5.47;2.15;;;;;;;;;;5112074;28;20043;-81
2023/10/10 03:25:54;;;;;;;4.30;1.70;;;;;;;;;;5110674;28;20047;-81
2023/10/10 03:28:29;;;;;;;3.42;1.80;;;;;;;;;;5111808;28;20449;-81
2023/10/10 03:31:09;;;;;;;4.65;2.00;;;;;;;;;;5111927;28;20051;-81
2023/10/10 05:25:55;;;;;;;3.05;1.90;;;;;;;;;;5109715;28;20047;-81
2023/10/10 05:28:23;;;;;;;4.72;2.20;;;;;;;;;;5109717;28;20074;-78
2023/10/10 05:30:55;;;;;;;5.22;1.98;;;;;;;;;;5109295;28;20043;-81
2023/10/10 05:33:22;;;;;;;13.23;2.20;;;;;;;;;;5109257;28;20392;-76
2023/10/10 05:35:57;;;;;;;3.67;1.95;;;;;;;;;;5109304;28;20514;-81
2023/10/10 05:38:25;;;;;;;4.43;2.30;;;;;;;;;;5108790;28;20054;-72
2023/10/10 05:40:52;;;;;;;3.65;2.05;;;;;;;;;;5109459;28;20047;-80
2023/10/10 05:43:26;;;;;;;5.03;2.20;;;;;;;;;;5109465;28;20119;-80
2023/10/10 05:45:53;;;;;;;4.90;2.42;;;;;;;;;;5109044;28;20130;-77
2023/10/10 05:48:21;;;;;;;4.38;2.33;;;;;;;;;;5108830;28;20074;-72
2023/10/10 05:50:48;;;;;;;6.35;1.92;;;;;;;;;;5109450;28;20418;-80
2023/10/10 05:53:16;;;;;;;5.22;2.50;;;;;;;;;;5109063;28;20078;-78
2023/10/10 05:55:50;;;;;;;5.82;2.40;;;;;;;;;;5108882;28;20047;-74
2023/10/10 05:58:17;;;;;;;7.10;2.10;;;;;;;;;;5109065;28;20513;-81
2023/10/10 06:00:48;;;;;;;8.45;2.13;;;;;;;;;;5108521;28;20536;-80
2023/10/10 06:03:19;;;;;;;3.70;2.15;;;;;;;;;;5108970;28;20123;-79
2023/10/10 06:05:46;;;;;;;5.35;2.28;;;;;;;;;;5108838;28;20048;-76
2023/10/10 06:08:13;;;;;;;4.70;1.95;;;;;;;;;;5108660;28;20093;-81
2023/10/10 06:10:40;;;;;;;7.25;2.58;;;;;;;;;;5109234;28;20050;-81
2023/10/10 06:13:07;;;;;;;9.13;2.30;;;;;;;;;;5109173;28;20078;-81
2023/10/10 06:15:34;;;;;;;8.95;2.60;;;;;;;;;;5090631;28;20393;-80
2023/10/10 06:18:13;;;;;;;8.43;2.33;;;;;;;;;;5109257;28;20051;-78
2023/10/10 06:20:44;;;;;;;10.77;2.50;;;;;;;;;;5108707;28;20071;-81
2023/10/10 06:23:14;;;;;;;9.45;2.15;;;;;;;;;;5108461;28;20511;-82
2023/10/10 06:25:42;;;;;;;8.90;2.70;;;;;;;;;;5108510;28;20525;-75
2023/10/10 06:28:35;;;;;;;5.07;2.15;;;;;;;;;;5108849;28;20048;-80
2023/10/10 06:30:59;;;;;;;5.97;3.05;;;;;;;;;;5108492;28;20128;-78
2023/10/10 06:33:29;;;;;;;9.70;3.10;;;;;;;;;;5091008;28;20130;-81
2023/10/10 06:41:58;;;;;;;6.68;2.75;;;;;;;;;;5108356;28;20109;-81
2023/10/10 06:44:39;;;;;;;6.00;2.75;;;;;;;;;;5108474;28;20047;-80
2023/10/10 06:47:11;;;;;;;4.93;2.70;;;;;;;;;;5108502;28;20082;-81
2023/10/10 06:49:53;;;;;;;7.07;2.70;;;;;;;;;;5108742;28;20543;-80
2023/10/10 06:52:23;;;;;;;10.40;2.40;;;;;;;;;;5108708;28;20044;-81
2023/10/10 06:54:56;;;;;;;6.32;2.65;;;;;;;;;;5108289;28;20040;-80
2023/10/10 06:57:36;;;;;;;11.88;3.20;;;;;;;;;;5108328;28;20540;-81
2023/10/10 07:02:48;;;;;;;7.07;2.50;;;;;;;;;;5112255;28;20055;-82
2023/10/10 07:05:15;;;;;;;9.10;2.63;;;;;;;;;;5112267;28;20047;-82
2023/10/10 07:07:42;;;;;;;4.28;2.17;;;;;;;;;;5111853;28;20608;-80
2023/10/10 07:10:25;;;;;;;11.68;2.65;;;;;;;;;;5111672;28;20044;-82
2023/10/10 07:12:57;;;;;;;6.53;2.50;;;;;;;;;;5112341;28;20061;-81
2023/10/10 07:15:34;;;;;;;13.27;3.33;;;;;;;;;;5111782;28;20051;-81
2023/10/10 07:18:08;;;;;;;6.53;2.60;;;;;;;;;;5111862;28;20081;-71
2023/10/10 07:23:21;;;;;;;7.00;2.17;;;;;;;;;;5111612;28;20044;-75
2023/10/10 07:26:00;;;;;;;3.92;1.98;;;;;;;;;;5093648;28;20079;-81
2023/10/10 07:28:28;;;;;;;4.80;1.90;;;;;;;;;;5111548;28;20054;-81
2023/10/10 07:30:55;;;;;;;6.72;2.38;;;;;;;;;;5111588;28;20048;-80
2023/10/10 07:33:29;;;;;;;5.88;2.35;;;;;;;;;;5093306;28;20435;-81
2023/10/10 07:35:57;;;;;;;3.50;1.80;;;;;;;;;;5111247;28;20564;-79
2023/10/10 07:38:27;;;;;;;4.47;2.20;;;;;;;;;;5110975;28;20058;-81
2023/10/10 07:40:54;;;;;;;4.90;1.80;;;;;;;;;;5111323;28;20122;-80
2023/10/10 07:43:27;;;;;;;6.05;2.40;;;;;;;;;;5093126;28;20494;-81
2023/10/10 07:45:56;;;;;;;4.63;2.30;;;;;;;;;;5111275;28;20576;-82
2023/10/10 07:51:06;;;;;;;5.93;2.72;;;;;;;;;;5110877;28;20641;-78
2023/10/10 07:53:41;;;;;;;6.07;2.28;;;;;;;;;;5110980;28;20127;-81
2023/10/10 07:56:08;;;;;;;4.22;2.13;;;;;;;;;;5111016;28;20130;-79
2023/10/10 07:58:44;;;;;;;7.55;2.17;;;;;;;;;;5111232;28;20067;-80
2023/10/10 08:01:19;;;;;;;4.75;2.33;;;;;;;;;;5110915;28;20138;-76
2023/10/10 08:03:47;;;;;;;5.88;2.47;;;;;;;;;;5110992;28;20044;-81
2023/10/10 08:06:22;;;;;;;11.25;2.45;;;;;;;;;;5092670;28;20051;-83
2023/10/10 08:11:36;;;;;;;7.40;2.80;;;;;;;;;;5110233;28;20051;-82
2023/10/10 08:14:08;;;;;;;6.10;2.53;;;;;;;;;;5110599;28;20070;-82
2023/10/10 08:16:39;;;;;;;7.30;2.35;;;;;;;;;;5110406;28;20051;-81
2023/10/10 08:19:15;;;;;;;6.03;2.47;;;;;;;;;;5110566;28;20052;-82
2023/10/10 08:21:51;;;;;;;6.10;2.15;;;;;;;;;;5110348;28;20048;-77
2023/10/10 08:24:19;;;;;;;5.10;2.17;;;;;;;;;;5110687;28;20185;-81
2023/10/10 08:26:51;;;;;;;11.15;2.97;;;;;;;;;;5110294;28;20052;-79
2023/10/10 08:29:22;;;;;;;11.00;3.00;;;;;;;;;;5110265;28;20195;-82
2023/10/10 08:31:51;;;;;;;4.68;2.25;;;;;;;;;;5109971;28;20072;-81
2023/10/10 08:34:18;;;;;;;11.63;2.40;;;;;;;;;;5110415;28;20048;-82
2023/10/10 08:36:45;;;;;;;6.25;2.88;;;;;;;;;;5110376;28;20043;-79
2023/10/10 08:39:25;;;;;;;5.90;2.90;;;;;;;;;;5110310;28;20047;-81
2023/10/10 08:41:53;;;;;;;5.57;2.60;;;;;;;;;;5110079;28;20048;-82
2023/10/10 08:44:20;;;;;;;8.07;2.95;;;;;;;;;;5110353;28;20136;-82
2023/10/10 08:46:48;;;;;;;7.47;2.75;;;;;;;;;;5109827;28;20055;-79
2023/10/10 08:49:16;;;;;;;7.97;2.90;;;;;;;;;;5110236;28;20047;-82
2023/10/10 08:51:44;;;;;;;13.35;3.28;;;;;;;;;;5109877;28;20097;-80
2023/10/10 08:54:15;;;;;;;7.68;2.80;;;;;;;;;;5109365;28;20043;-79
2023/10/10 08:57:00;;;;;;;9.98;2.78;;;;;;;;;;5109756;28;20094;-80
2023/10/10 08:59:31;;;;;;;9.60;2.85;;;;;;;;;;5109831;28;20566;-79
2023/10/10 09:02:20;;;;;;;4.60;2.30;;;;;;;;;;5091359;28;20051;-79
2023/10/10 09:04:50;;;;;;;7.65;2.75;;;;;;;;;;5110013;28;20077;-79
2023/10/10 09:07:21;;;;;;;6.47;2.80;;;;;;;;;;5109798;28;20051;-76
2023/10/10 09:09:55;;;;;;;5.40;2.65;;;;;;;;;;5109426;28;20096;-77
2023/10/10 09:12:23;;;;;;;9.07;3.10;;;;;;;;;;5109694;28;20051;-81
2023/10/10 09:14:50;;;;;;;4.10;2.55;;;;;;;;;;5109848;28;20047;-80
2023/10/10 09:17:40;;;;;;;9.93;3.17;;;;;;;;;;5109641;28;20083;-80
2023/10/10 09:23:32;;;;;;;7.65;3.28;;;;;;;;;;5063025;28;20090;-78
2023/10/10 09:26:18;;;;;;;6.28;3.13;;;;;;;;;;5109445;28;20054;-81
2023/10/10 09:28:55;;;;;;;7.10;3.20;;;;;;;;;;5109193;28;20047;-81
2023/10/10 09:31:31;;;;;;;7.93;3.10;;;;;;;;;;5109004;28;20043;-81
2023/10/10 09:34:03;;;;;;;6.95;2.80;;;;;;;;;;5109540;28;20124;-82
2023/10/10 09:36:37;;;;;;;9.13;3.25;;;;;;;;;;5091053;28;20168;-71
2023/10/10 09:39:09;;;;;;;8.15;2.80;;;;;;;;;;5108948;28;20048;-70
2023/10/10 09:41:47;;;;;;;7.85;3.28;;;;;;;;;;5109288;28;20051;-76
2023/10/10 09:54:55;;;;;;;9.88;3.05;;;;;;;;;;5108765;28;20096;-81
2023/10/10 09:57:26;;;;;;;7.93;3.03;;;;;;;;;;5108868;28;20082;-79
2023/10/10 09:59:56;;;;;;;7.80;3.13;;;;;;;;;;5109067;28;20043;-82
2023/10/10 10:02:40;;;;;;;7.13;3.05;;;;;;;;;;5108870;28;20051;-82
2023/10/10 10:05:17;;;;;;;10.85;3.00;;;;;;;;;;5109357;28;20055;-81
2023/10/10 10:08:06;;;;;;;8.60;3.38;;;;;;;;;;5108573;28;20047;-82
2023/10/10 10:10:54;;;;;;;8.30;3.03;;;;;;;;;;5109183;28;20066;-76
2023/10/10 10:13:48;;;;;;;6.10;3.08;;;;;;;;;;5108769;28;20052;-79
2023/10/10 10:16:37;;;;;;;7.20;2.80;;;;;;;;;;5108583;28;20106;-81
2023/10/10 10:19:37;;;;;;;8.00;3.30;;;;;;;;;;5108859;28;20047;-81
2023/10/10 10:22:09;;;;;;;5.15;2.85;;;;;;;;;;5104927;28;20059;-75
2023/10/10 10:25:20;;;;;;;5.65;2.58;;;;;;;;;;5108389;28;20130;-79
2023/10/10 10:27:49;;;;;;;6.85;2.85;;;;;;;;;;5108197;28;20043;-78
2023/10/10 10:32:47;;;;;;;6.50;2.85;;;;;;;;;;5108467;28;20055;-81
2023/10/10 10:36:14;;;;;;;6.95;2.67;;;;;;;;;;5110058;28;20134;-77
2023/10/10 10:38:53;;;;;;;5.47;2.60;;;;;;;;;;5111795;28;20054;-78
2023/10/10 10:41:41;;;;;;;11.02;3.70;;;;;;;;;;5112896;28;20044;-80
2023/10/10 10:44:12;;;;;;;7.50;2.70;;;;;;;;;;5112979;28;20043;-79
2023/10/10 10:46:47;;;;;;;8.43;3.08;;;;;;;;;;5112432;28;20981;-79
2023/10/10 10:49:15;;;;;;;10.75;2.92;;;;;;;;;;5112195;28;20054;-81
2023/10/10 10:51:47;;;;;;;8.57;2.90;;;;;;;;;;5112343;28;20050;-81
2023/10/10 10:54:38;;;;;;;8.75;3.20;;;;;;;;;;5112080;28;20537;-80
2023/10/10 10:57:04;;;;;;;7.88;2.90;;;;;;;;;;5112176;28;20044;-81
2023/10/10 10:59:44;;;;;;;8.65;3.40;;;;;;;;;;5112348;28;20044;-80
2023/10/10 11:02:15;;;;;;;7.50;2.95;;;;;;;;;;5112044;28;20522;-79
2023/10/10 11:04:50;;;;;;;5.00;2.53;;;;;;;;;;5112485;28;20122;-82
2023/10/10 11:07:29;;;;;;;6.13;2.80;;;;;;;;;;5112055;28;20044;-82
2023/10/10 11:10:06;;;;;;;6.10;2.92;;;;;;;;;;5111994;28;20048;-81
2023/10/10 11:12:36;;;;;;;5.15;2.50;;;;;;;;;;5112064;28;20053;-77
2023/10/10 11:15:10;;;;;;;;;;;;;;;;;;5112579;28;20047;-81
2023/10/10 11:17:40;;;;;;;5.53;2.60;;;;;;;;;;5112202;28;19957;-81
2023/10/10 11:20:29;;;;;;;5.93;2.47;;;;;;;;;;5112384;28;20075;-81
2023/10/10 11:23:10;;;;;;;4.93;2.70;;;;;;;;;;5111275;28;20445;-81
2023/10/10 11:25:45;;;;;;;4.63;2.30;;;;;;;;;;5111715;28;20104;-82
2023/10/10 11:28:21;;;;;;;6.05;2.90;;;;;;;;;;5111570;28;20055;-81
2023/10/10 11:30:50;;;;;;;6.82;2.63;;;;;;;;;;5111986;28;20050;-78
2023/10/10 11:33:56;;;;;;;5.22;2.45;;;;;;;;;;5111541;28;20048;-81
2023/10/10 11:36:37;;;;;;;4.25;2.58;;;;;;;;;;5111251;28;20067;-74
2023/10/10 11:39:24;;;;;;;7.20;2.50;;;;;;;;;;5111269;28;20047;-80
2023/10/10 11:41:51;;;;;;;7.60;2.90;;;;;;;;;;5111888;28;20044;-81
2023/10/10 11:44:20;;;;;;;5.45;2.60;;;;;;;;;;5111529;28;20126;-77
2023/10/10 11:46:49;;;;;;;6.73;2.43;;;;;;;;;;5110653;28;20051;-77
2023/10/10 11:49:16;;;;;;;8.13;2.67;;;;;;;;;;5111046;28;20503;-81
2023/10/10 11:51:43;;;;;;;6.40;2.50;;;;;;;;;;5111562;28;20052;-79
2023/10/10 11:54:09;;;;;;;5.35;2.53;;;;;;;;;;5110617;28;20052;-81
2023/10/10 11:56:36;;;;;;;5.95;2.58;;;;;;;;;;5111425;28;20043;-82
2023/10/10 11:59:10;;;;;;;5.13;2.67;;;;;;;;;;5111177;28;20059;-82
2023/10/10 12:01:51;;;;;;;6.55;2.70;;;;;;;;;;5111396;28;20127;-82
2023/10/10 12:04:38;;;;;;;4.88;2.53;;;;;;;;;;5110735;28;20134;-75
2023/10/10 12:07:05;;;;;;;6.82;2.72;;;;;;;;;;5111294;28;20044;-82
2023/10/10 12:09:33;;;;;;;6.65;2.65;;;;;;;;;;5110768;28;20047;-82
2023/10/10 12:12:03;;;;;;;4.82;2.58;;;;;;;;;;5111269;28;20048;-82
2023/10/10 12:14:31;;;;;;;8.15;3.08;;;;;;;;;;5110979;28;20051;-82
2023/10/10 12:17:00;;;;;;;7.43;2.60;;;;;;;;;;5110457;28;20078;-77
2023/10/10 12:19:36;;;;;;;5.32;2.40;;;;;;;;;;5110332;28;20510;-82
2023/10/10 12:22:10;;;;;;;8.27;2.72;;;;;;;;;;5110802;28;20469;-82
2023/10/10 12:24:41;;;;;;;6.05;2.63;;;;;;;;;;5110470;28;20496;-82
2023/10/10 12:27:09;;;;;;;4.95;2.50;;;;;;;;;;5110844;28;20083;-82
2023/10/10 12:29:47;;;;;;;5.38;2.33;;;;;;;;;;5110273;28;20051;-82
2023/10/10 12:32:15;;;;;;;7.50;2.58;;;;;;;;;;5110647;28;20090;-82
2023/10/10 12:34:45;;;;;;;4.22;2.50;;;;;;;;;;5110408;28;20047;-82
2023/10/10 12:37:15;;;;;;;3.92;2.20;;;;;;;;;;5110394;28;20130;-80
2023/10/10 12:39:43;;;;;;;4.70;2.30;;;;;;;;;;5109503;28;20071;-82
2023/10/10 12:42:10;;;;;;;7.03;2.50;;;;;;;;;;5109994;28;20668;-82
2023/10/10 12:44:36;;;;;;;8.40;2.40;;;;;;;;;;5110370;28;20093;-82
2023/10/10 12:47:06;;;;;;;5.78;2.30;;;;;;;;;;5110436;28;20046;-81
2023/10/10 12:49:36;;;;;;;5.28;1.98;;;;;;;;;;5109806;28;20039;-82
2023/10/10 12:52:11;;;;;;;4.47;2.58;;;;;;;;;;5110478;28;20046;-82
2023/10/10 12:54:41;;;;;;;7.00;2.38;;;;;;;;;;5109631;28;20048;-81
2023/10/10 12:57:13;;;;;;;3.90;2.33;;;;;;;;;;5110082;28;20096;-81
2023/10/10 12:59:46;;;;;;;4.28;2.20;;;;;;;;;;5109629;28;20407;-81
2023/10/10 13:02:15;;;;;;;3.55;2.03;;;;;;;;;;5110175;28;20047;-82
2023/10/10 13:04:46;;;;;;;4.05;2.00;;;;;;;;;;5109470;28;20079;-82
2023/10/10 13:07:16;;;;;;;3.97;2.28;;;;;;;;;;5109810;28;20046;-82
2023/10/10 13:09:43;;;;;;;3.75;2.20;;;;;;;;;;5109391;28;20073;-81
2023/10/10 13:12:18;;;;;;;3.03;2.00;;;;;;;;;;5109982;28;20051;-82
2023/10/10 13:14:50;;;;;;;4.75;2.10;;;;;;;;;;5109341;28;20043;-81
2023/10/10 13:17:50;;;;;;;3.88;2.03;;;;;;;;;;5109739;28;20170;-81
2023/10/10 13:20:05;;;;;;;2.95;1.73;;;;;;;;;;5109023;28;20097;-80
2023/10/10 13:22:31;;;;;;;2.50;1.75;;;;;;;;;;5109517;28;20483;-82
2023/10/10 13:24:58;;;;;;;3.13;2.13;;;;;;;;;;5109029;28;20151;-78
2023/10/10 13:27:25;;;;;;;3.17;1.92;;;;;;;;;;5109368;28;20048;-81
2023/10/10 13:29:52;;;;;;;5.75;1.88;;;;;;;;;;5109216;28;20086;-81
2023/10/10 13:32:20;;;;;;;2.85;1.75;;;;;;;;;;5091338;28;20195;-81
2023/10/10 13:34:47;;;;;;;5.50;1.92;;;;;;;;;;5109048;28;20055;-80
2023/10/10 13:37:14;;;;;;;4.22;1.95;;;;;;;;;;5109509;28;20075;-82
2023/10/10 13:39:47;;;;;;;4.78;1.90;;;;;;;;;;5108692;28;20044;-80
2023/10/10 13:42:14;;;;;;;3.17;1.77;;;;;;;;;;5109158;28;20442;-76
2023/10/10 13:44:42;;;;;;;3.17;1.80;;;;;;;;;;5108987;28;20092;-79
2023/10/10 13:47:11;;;;;;;4.15;2.00;;;;;;;;;;5109325;28;20043;-80
2023/10/10 13:49:44;;;;;;;4.65;1.85;;;;;;;;;;5108759;28;20066;-76
2023/10/10 13:52:13;;;;;;;2.55;1.75;;;;;;;;;;5109309;28;20063;-78
2023/10/10 13:54:40;;;;;;;4.93;1.95;;;;;;;;;;5108765;28;20047;-81
2023/10/10 13:57:07;;;;;;;3.47;2.08;;;;;;;;;;5109086;28;20040;-81
2023/10/10 13:59:34;;;;;;;3.63;1.75;;;;;;;;;;5108757;28;20039;-77
2023/10/10 14:02:03;;;;;;;2.88;1.73;;;;;;;;;;5109243;28;20046;-82
2023/10/10 14:04:45;;;;;;;3.90;1.73;;;;;;;;;;5108750;28;20295;-79
2023/10/10 14:07:14;;;;;;;4.32;1.70;;;;;;;;;;5108835;28;20418;-81
2023/10/10 14:09:42;;;;;;;3.22;1.80;;;;;;;;;;5108672;28;20621;-82
2023/10/10 14:12:20;;;;;;;2.95;1.60;;;;;;;;;;5113526;28;20044;-80
2023/10/10 14:14:47;;;;;;;4.22;1.80;;;;;;;;;;5112927;28;20135;-72
2023/10/10 14:17:14;;;;;;;2.63;1.60;;;;;;;;;;5113515;28;20115;-78
2023/10/10 14:19:41;;;;;;;5.10;2.03;;;;;;;;;;5112547;28;20055;-69
2023/10/10 14:22:10;;;;;;;4.13;1.70;;;;;;;;;;5113356;28;20043;-80
2023/10/10 14:24:37;;;;;;;3.45;1.55;;;;;;;;;;5112512;28;20055;-68
2023/10/10 14:27:05;;;;;;;4.47;2.20;;;;;;;;;;5113195;28;20040;-78
2023/10/10 14:29:41;;;;;;;3.58;1.70;;;;;;;;;;5112770;28;20127;-81
2023/10/10 14:32:10;;;;;;;4.30;2.03;;;;;;;;;;5112922;28;20071;-82
2023/10/10 14:34:57;;;;;;;3.65;1.67;;;;;;;;;;5112521;28;20040;-82
2023/10/10 14:37:24;;;;;;;3.63;1.70;;;;;;;;;;5112724;28;20040;-82
2023/10/10 14:40:11;;;;;;;2.70;1.58;;;;;;;;;;5112058;28;20074;-81
2023/10/10 14:42:38;;;;;;;5.13;1.83;;;;;;;;;;5112606;28;20043;-82
2023/10/10 14:45:09;;;;;;;3.00;1.60;;;;;;;;;;5112571;28;20043;-82
2023/10/10 14:47:39;;;;;;;3.55;2.10;;;;;;;;;;5112988;28;20043;-77
2023/10/10 14:50:07;;;;;;;4.88;2.05;;;;;;;;;;5112561;28;20040;-82
2023/10/10 14:52:40;;;;;;;3.05;1.60;;;;;;;;;;5112553;28;20047;-74
2023/10/10 14:55:23;;;;;;;4.70;2.00;;;;;;;;;;5112247;28;20119;-73
2023/10/10 14:57:57;;;;;;;4.15;1.70;;;;;;;;;;5112104;28;20406;-80
2023/10/10 15:00:27;;;;;;;5.90;1.92;;;;;;;;;;5111742;28;20130;-80
2023/10/10 15:02:55;;;;;;;2.97;1.83;;;;;;;;;;5112339;28;20075;-76
2023/10/10 15:05:26;;;;;;;3.78;1.90;;;;;;;;;;5112356;28;20053;-75
2023/10/10 15:07:54;;;;;;;2.75;1.63;;;;;;;;;;5111958;28;20093;-81
2023/10/10 15:10:25;;;;;;;3.10;1.70;;;;;;;;;;5111978;28;20044;-79
2023/10/10 15:12:53;;;;;;;5.70;2.03;;;;;;;;;;5111953;28;20047;-78
2023/10/10 15:15:22;;;;;;;5.53;1.80;;;;;;;;;;5111678;28;20043;-80
2023/10/10 15:17:49;;;;;;;5.32;2.00;;;;;;;;;;5112068;28;20047;-83
2023/10/10 15:20:16;;;;;;;9.07;1.83;;;;;;;;;;5111394;28;20059;-74
2023/10/10 15:22:43;;;;;;;4.65;2.03;;;;;;;;;;5111386;28;20051;-82
2023/10/10 15:25:10;;;;;;;3.75;1.80;;;;;;;;;;5112072;28;20063;-75
2023/10/10 15:27:41;;;;;;;3.95;1.95;;;;;;;;;;5111889;28;20047;-75
2023/10/10 15:30:09;;;;;;;4.30;1.52;;;;;;;;;;5111616;28;20043;-72
2023/10/10 15:32:46;;;;;;;3.50;1.65;;;;;;;;;;5111530;28;20608;-78
2023/10/10 15:35:18;;;;;;;4.57;1.90;;;;;;;;;;5111237;28;20137;-80
2023/10/10 15:37:46;;;;;;;3.65;1.73;;;;;;;;;;5111442;28;20051;-83
2023/10/10 15:40:20;;;;;;;2.53;1.50;;;;;;;;;;5111136;28;20051;-83
2023/10/10 15:42:51;;;;;;;3.28;1.60;;;;;;;;;;5093783;28;20036;-82
2023/10/10 15:45:21;;;;;;;4.13;1.70;;;;;;;;;;5111297;28;20404;-82
2023/10/10 15:47:54;;;;;;;;;;;;;;;;;;5111846;28;20569;-82
2023/10/10 15:50:21;;;;;;;2.80;1.60;;;;;;;;;;5111103;28;20395;-82
2023/10/10 15:52:49;;;;;;;4.95;1.98;;;;;;;;;;5110988;28;20047;-82
2023/10/10 15:55:23;;;;;;;3.60;1.60;;;;;;;;;;5111075;28;20473;-82
2023/10/10 15:57:52;;;;;;;3.17;1.83;;;;;;;;;;5111010;28;20046;-81
2023/10/10 16:00:21;;;;;;;4.38;1.90;;;;;;;;;;5111058;28;20101;-83
2023/10/10 16:02:53;;;;;;;4.18;1.98;;;;;;;;;;5111143;28;20418;-81
2023/10/10 16:05:21;;;;;;;5.43;1.98;;;;;;;;;;5110855;28;20058;-77
2023/10/10 16:07:47;;;;;;;2.60;1.58;;;;;;;;;;5110975;28;20051;-82
2023/10/10 16:10:34;;;;;;;3.28;1.80;;;;;;;;;;5110587;28;20101;-82
2023/10/10 16:13:02;;;;;;;3.72;1.73;;;;;;;;;;5110745;28;20048;-82
2023/10/10 16:15:32;;;;;;;3.20;1.70;;;;;;;;;;5110382;28;20063;-75
2023/10/10 16:17:59;;;;;;;3.45;1.73;;;;;;;;;;5111057;28;20050;-68
2023/10/10 16:20:26;;;;;;;3.05;1.60;;;;;;;;;;5110468;28;20515;-82
2023/10/10 16:22:53;;;;;;;3.10;1.63;;;;;;;;;;5110922;28;20047;-81
2023/10/10 16:25:23;;;;;;;7.05;1.80;;;;;;;;;;5110746;28;20051;-73
2023/10/10 16:27:51;;;;;;;6.07;1.90;;;;;;;;;;5110603;28;20490;-78
2023/10/10 16:30:17;;;;;;;7.65;2.10;;;;;;;;;;5110596;28;20047;-80
2023/10/10 16:32:44;;;;;;;3.60;1.60;;;;;;;;;;5109641;28;20523;-76
2023/10/10 16:35:11;;;;;;;5.75;2.13;;;;;;;;;;5110296;28;20541;-81
2023/10/10 16:37:40;;;;;;;5.63;1.92;;;;;;;;;;5109983;28;20044;-81
2023/10/10 16:40:11;;;;;;;4.32;1.90;;;;;;;;;;5110668;28;20101;-78
2023/10/10 16:42:38;;;;;;;6.32;1.73;;;;;;;;;;5110240;28;20095;-78
2023/10/10 16:45:10;;;;;;;5.50;1.90;;;;;;;;;;5110194;28;20646;-79
2023/10/10 16:47:41;;;;;;;5.13;2.15;;;;;;;;;;5110230;28;20076;-78
2023/10/10 16:50:09;;;;;;;5.75;2.00;;;;;;;;;;5110237;28;20463;-79
2023/10/10 16:52:36;;;;;;;5.95;1.98;;;;;;;;;;5109705;28;20112;-76
2023/10/10 16:55:10;;;;;;;3.88;1.70;;;;;;;;;;5110418;28;20130;-70
2023/10/10 16:57:37;;;;;;;6.72;2.33;;;;;;;;;;5109605;28;20071;-81
2023/10/10 17:00:12;;;;;;;5.10;1.80;;;;;;;;;;5109902;28;20044;-82
2023/10/10 17:02:40;;;;;;;3.72;1.90;;;;;;;;;;5109224;28;20052;-81
2023/10/10 17:05:11;;;;;;;3.80;1.98;;;;;;;;;;5109491;28;20083;-79
2023/10/10 17:07:41;;;;;;;4.47;1.80;;;;;;;;;;5109495;28;20096;-81
2023/10/10 17:10:13;;;;;;;5.70;1.85;;;;;;;;;;5110080;28;20075;-80
2023/10/10 17:12:42;;;;;;;4.65;2.08;;;;;;;;;;5109427;28;20047;-80
2023/10/10 17:15:13;;;;;;;4.18;2.00;;;;;;;;;;5110050;28;20055;-80
2023/10/10 17:17:41;;;;;;;5.13;2.25;;;;;;;;;;5110032;28;20101;-81
2023/10/10 17:20:15;;;;;;;4.15;1.90;;;;;;;;;;5109977;28;20043;-79
2023/10/10 17:22:48;;;;;;;3.95;2.13;;;;;;;;;;5109295;28;20105;-81
2023/10/10 17:25:15;;;;;;;4.80;2.10;;;;;;;;;;5109377;28;20499;-82
2023/10/10 17:27:42;;;;;;;6.85;2.45;;;;;;;;;;5109803;28;20053;-80
2023/10/10 17:30:10;;;;;;;4.45;2.42;;;;;;;;;;5110005;28;20044;-82
2023/10/10 17:32:40;;;;;;;5.30;2.25;;;;;;;;;;5109014;28;20050;-81
2023/10/10 17:35:08;;;;;;;8.45;2.67;;;;;;;;;;5109500;28;20420;-76
2023/10/10 17:37:35;;;;;;;5.05;2.63;;;;;;;;;;5108912;28;20050;-80
2023/10/10 17:40:05;;;;;;;7.10;2.42;;;;;;;;;;5109629;28;20048;-84
2023/10/10 17:42:32;;;;;;;6.00;2.50;;;;;;;;;;5109268;28;20044;-79
2023/10/10 17:44:59;;;;;;;5.35;2.67;;;;;;;;;;5108710;28;20113;-73
2023/10/10 17:47:28;;;;;;;6.30;2.55;;;;;;;;;;5109259;28;20043;-81
2023/10/10 17:49:58;;;;;;;6.85;2.53;;;;;;;;;;5109632;28;20043;-73
2023/10/10 17:52:25;;;;;;;5.53;2.70;;;;;;;;;;5109088;28;20044;-73
2023/10/10 17:54:53;;;;;;;4.53;2.30;;;;;;;;;;5108708;28;20053;-81
2023/10/10 17:57:22;;;;;;;4.63;2.47;;;;;;;;;;5109088;28;20043;-81
2023/10/10 17:59:52;;;;;;;12.27;3.50;;;;;;;;;;5109326;28;20529;-76
2023/10/10 18:02:22;;;;;;;6.45;2.80;;;;;;;;;;5108684;28;20043;-78
2023/10/10 18:04:50;;;;;;;7.20;3.35;;;;;;;;;;5108932;28;20495;-81
2023/10/10 18:07:24;;;;;;;7.57;3.10;;;;;;;;;;5108871;28;20090;-80
2023/10/10 18:09:56;;;;;;;5.78;2.85;;;;;;;;;;5109195;28;20071;-73
2023/10/10 18:12:22;;;;;;;8.37;3.20;;;;;;;;;;5108683;28;20052;-80
2023/10/10 18:14:53;;;;;;;9.20;2.90;;;;;;;;;;5108731;28;20286;-72
2023/10/10 18:17:21;;;;;;;11.18;3.35;;;;;;;;;;5108714;28;20483;-79